Time;durP1;ratioP1;P1;durP2;ratioP2;P2;SDS_P1;SDS_P2;PMS_P1;PMS_P2;Temp;Humidity;BMP_temperature;BMP_pressure;BME280_temperature;BME280_humidity;BME280_pressure;Samples;Min_cycle;Max_cycle;Signal;HPM_P1;HPM_P2
2022/05/22 00:01:53;;;;;;;7.80;2.63;;;13.00;99.90;;;;;;5032793;28;20951;-65
2022/05/22 00:04:19;;;;;;;5.60;2.00;;;13.00;99.90;;;;;;5031850;28;20458;-65
2022/05/22 00:06:45;;;;;;;3.17;2.87;;;13.00;99.90;;;;;;5031188;28;20176;-72
2022/05/22 00:09:11;;;;;;;4.97;2.20;;;12.90;99.90;;;;;;5034269;28;20424;-72
2022/05/22 00:11:36;;;;;;;8.37;2.23;;;12.90;99.90;;;;;;5031375;28;20188;-71
2022/05/22 00:14:03;;;;;;;4.13;1.73;;;12.90;99.90;;;;;;5029518;28;20573;-65
2022/05/22 00:16:37;;;;;;;8.40;2.43;;;12.90;99.90;;;;;;5031164;28;20521;-69
2022/05/22 00:19:08;;;;;;;5.57;2.50;;;12.90;99.90;;;;;;5028903;28;20470;-72
2022/05/22 00:21:35;;;;;;;3.53;2.00;;;12.90;99.90;;;;;;5030254;28;20468;-65
2022/05/22 00:24:02;;;;;;;2.13;1.90;;;12.90;99.90;;;;;;5029736;28;20905;-64
2022/05/22 00:26:28;;;;;;;3.63;2.23;;;12.90;99.90;;;;;;5032577;28;20404;-69
2022/05/22 00:28:53;;;;;;;12.97;2.17;;;12.90;99.90;;;;;;5032138;28;20971;-65
2022/05/22 00:31:19;;;;;;;2.70;1.87;;;12.90;99.90;;;;;;5033042;28;20266;-64
2022/05/22 00:33:45;;;;;;;3.20;2.07;;;12.90;99.90;;;;;;5031847;28;20207;-65
2022/05/22 00:36:10;;;;;;;5.37;2.30;;;12.80;99.90;;;;;;5031644;28;20242;-71
2022/05/22 00:38:36;;;;;;;10.87;2.10;;;12.80;99.90;;;;;;5030574;28;20212;-67
2022/05/22 00:41:02;;;;;;;7.13;2.43;;;12.80;99.90;;;;;;5029340;28;20192;-71
2022/05/22 00:43:37;;;;;;;5.37;2.50;;;12.80;99.90;;;;;;5029938;28;20219;-64
2022/05/22 00:46:05;;;;;;;8.43;2.73;;;12.90;99.90;;;;;;5031692;28;20404;-72
2022/05/22 00:48:32;;;;;;;12.00;2.10;;;12.90;99.90;;;;;;5028276;28;20496;-71
2022/05/22 00:51:04;;;;;;;5.87;2.37;;;12.90;99.90;;;;;;5029794;28;20745;-65
2022/05/22 00:53:33;;;;;;;9.30;2.50;;;12.90;99.90;;;;;;5032618;28;20966;-72
2022/05/22 00:56:01;;;;;;;3.33;2.10;;;12.80;99.90;;;;;;5032266;28;20413;-72
2022/05/22 00:58:29;;;;;;;4.97;2.10;;;12.90;99.90;;;;;;5030293;28;20454;-65
2022/05/22 01:00:55;;;;;;;3.20;2.10;;;12.90;99.90;;;;;;5031112;28;20408;-71
2022/05/22 01:03:27;;;;;;;2.80;2.50;;;12.90;99.90;;;;;;5032278;28;20444;-64
2022/05/22 01:06:17;;;;;;;4.40;2.03;;;12.90;99.90;;;;;;5030824;28;21018;-73
2022/05/22 01:08:43;;;;;;;2.23;2.00;;;12.90;99.90;;;;;;5028867;28;20428;-64
2022/05/22 01:11:14;;;;;;;3.50;2.33;;;12.90;99.90;;;;;;5031018;28;20487;-72
2022/05/22 01:13:46;;;;;;;16.00;2.03;;;12.90;99.90;;;;;;5029184;28;20409;-72
2022/05/22 01:16:12;;;;;;;3.93;2.30;;;12.90;99.90;;;;;;5027588;28;20543;-70
2022/05/22 01:18:53;;;;;;;4.80;2.17;;;12.90;99.90;;;;;;5029722;28;20863;-71
2022/05/22 01:21:28;;;;;;;5.00;3.33;;;12.90;99.90;;;;;;5032005;28;20412;-72
2022/05/22 01:23:54;;;;;;;5.83;2.00;;;12.90;99.90;;;;;;5032087;28;20563;-66
2022/05/22 01:26:21;;;;;;;11.13;2.30;;;12.90;99.90;;;;;;5031907;28;20451;-65
2022/05/22 01:28:46;;;;;;;10.87;1.77;;;12.80;99.90;;;;;;5029297;28;20965;-72
2022/05/22 01:31:13;;;;;;;3.00;2.07;;;12.80;99.90;;;;;;5031188;28;20438;-65
2022/05/22 01:33:40;;;;;;;5.10;3.30;;;12.80;99.90;;;;;;5031934;28;20659;-72
2022/05/22 01:36:07;;;;;;;3.20;2.07;;;12.80;99.90;;;;;;5029618;28;20496;-69
2022/05/22 01:38:34;;;;;;;9.17;2.40;;;12.80;99.90;;;;;;5028250;28;20425;-71
2022/05/22 01:41:00;;;;;;;6.37;1.90;;;12.80;99.90;;;;;;5031965;28;20430;-65
2022/05/22 01:43:26;;;;;;;8.93;2.00;;;12.80;99.90;;;;;;5030741;28;20501;-64
2022/05/22 01:45:54;;;;;;;7.27;2.57;;;12.80;99.90;;;;;;5030473;28;20929;-65
2022/05/22 01:48:20;;;;;;;2.70;2.50;;;12.80;99.90;;;;;;5030201;28;20213;-71
2022/05/22 01:50:46;;;;;;;3.40;2.30;;;12.80;99.90;;;;;;5031874;28;20434;-71
2022/05/22 01:53:12;;;;;;;5.67;2.50;;;12.70;99.90;;;;;;5031175;28;20479;-65
2022/05/22 01:55:39;;;;;;;5.53;3.70;;;12.60;99.90;;;;;;5031897;28;20272;-72
2022/05/22 01:58:07;;;;;;;7.13;2.80;;;12.60;99.90;;;;;;5026816;28;21074;-65
2022/05/22 02:00:34;;;;;;;11.77;3.23;;;12.60;99.90;;;;;;5028558;28;20427;-65
2022/05/22 02:03:00;;;;;;;11.77;2.43;;;12.60;99.90;;;;;;5028962;28;20580;-65
2022/05/22 02:05:26;;;;;;;3.57;2.10;;;12.60;99.90;;;;;;5029969;28;20516;-65
2022/05/22 02:10:38;;;;;;;3.40;2.50;;;12.60;99.90;;;;;;5030508;28;20278;-64
2022/05/22 02:13:04;;;;;;;5.33;2.63;;;12.60;99.90;;;;;;5031490;28;20480;-73
2022/05/22 02:15:30;;;;;;;2.80;2.20;;;12.60;99.90;;;;;;5033887;28;20411;-65
2022/05/22 02:17:56;;;;;;;1.73;1.63;;;12.60;99.90;;;;;;5027650;28;20932;-66
2022/05/22 02:20:22;;;;;;;5.27;2.30;;;12.60;99.90;;;;;;5030330;28;20183;-66
2022/05/22 02:22:51;;;;;;;4.33;3.40;;;12.50;99.90;;;;;;5031598;28;20515;-65
2022/05/22 02:25:20;;;;;;;3.97;2.27;;;12.50;99.90;;;;;;5033540;28;20452;-65
2022/05/22 02:27:46;;;;;;;3.90;2.10;;;12.50;99.90;;;;;;5030481;28;20511;-65
2022/05/22 02:30:14;;;;;;;5.40;2.40;;;12.50;99.90;;;;;;5033722;28;20408;-71
2022/05/22 02:32:40;;;;;;;5.73;2.30;;;12.60;99.90;;;;;;5034135;28;20397;-71
2022/05/22 02:35:07;;;;;;;3.27;2.97;;;12.60;99.90;;;;;;5035203;28;20412;-65
2022/05/22 02:37:43;;;;;;;6.00;2.67;;;12.60;99.90;;;;;;5034819;28;20175;-72
2022/05/22 02:40:10;;;;;;;2.17;2.00;;;12.50;99.90;;;;;;5029016;28;20432;-64
2022/05/22 02:42:43;;;;;;;5.67;2.40;;;12.60;99.90;;;;;;5035465;28;20457;-72
2022/05/22 02:45:11;;;;;;;2.93;2.40;;;12.60;99.90;;;;;;5033797;28;20526;-65
2022/05/22 02:47:37;;;;;;;6.80;2.43;;;12.50;99.90;;;;;;5033134;28;20537;-72
2022/05/22 02:50:04;;;;;;;3.47;2.27;;;12.50;99.90;;;;;;5034007;28;20448;-72
2022/05/22 02:52:30;;;;;;;5.87;2.73;;;12.50;99.90;;;;;;5033779;28;21380;-72
2022/05/22 02:54:56;;;;;;;2.60;2.33;;;12.40;99.90;;;;;;5032291;28;20519;-70
2022/05/22 02:57:22;;;;;;;3.77;2.30;;;12.40;99.90;;;;;;5035060;28;20167;-72
2022/05/22 02:59:49;;;;;;;3.30;2.40;;;12.50;1.00;;;;;;5033705;28;20180;-72
2022/05/22 03:02:15;;;;;;;5.20;2.50;;;12.50;1.00;;;;;;5034773;28;20444;-66
2022/05/22 03:04:41;;;;;;;3.73;2.40;;;12.50;1.00;;;;;;5027037;28;20458;-70
2022/05/22 03:07:08;;;;;;;11.07;2.90;;;12.50;1.00;;;;;;5026993;28;20430;-72
2022/05/22 03:09:37;;;;;;;6.27;2.90;;;12.50;1.00;;;;;;5032213;28;20545;-65
2022/05/22 03:12:13;;;;;;;6.47;2.97;;;12.50;1.00;;;;;;5032144;28;20812;-65
2022/05/22 03:14:46;;;;;;;4.23;2.20;;;12.50;1.00;;;;;;5032001;28;20977;-72
2022/05/22 03:17:12;;;;;;;15.50;3.07;;;12.50;1.00;;;;;;5031813;28;20495;-73
2022/05/22 03:19:37;;;;;;;2.73;2.40;;;12.40;1.00;;;;;;5032694;28;20875;-72
2022/05/22 03:22:05;;;;;;;4.33;2.57;;;12.40;1.00;;;;;;5033925;28;20210;-65
2022/05/22 03:24:31;;;;;;;5.47;3.20;;;12.50;1.00;;;;;;5034254;28;20175;-72
2022/05/22 03:26:57;;;;;;;6.50;2.50;;;12.40;1.00;;;;;;5030305;28;20408;-73
2022/05/22 03:29:23;;;;;;;5.00;2.83;;;12.40;1.00;;;;;;5032803;28;20199;-65
2022/05/22 03:31:48;;;;;;;5.97;2.53;;;12.40;1.00;;;;;;5038168;28;20209;-65
2022/05/22 03:34:14;;;;;;;6.80;3.20;;;12.50;1.00;;;;;;5036478;28;20413;-65
2022/05/22 03:36:40;;;;;;;4.53;2.63;;;12.50;1.00;;;;;;5031592;28;20661;-71
2022/05/22 03:39:06;;;;;;;5.10;2.57;;;12.50;1.00;;;;;;5031665;28;20207;-72
2022/05/22 03:41:33;;;;;;;8.10;2.50;;;12.60;1.00;;;;;;5030094;28;20266;-69
2022/05/22 03:43:59;;;;;;;5.67;2.80;;;12.60;1.00;;;;;;5030926;28;20459;-65
2022/05/22 03:46:25;;;;;;;7.90;2.60;;;12.70;1.00;;;;;;5033663;28;20417;-65
2022/05/22 03:48:50;;;;;;;4.80;3.07;;;12.70;1.00;;;;;;5032186;28;20231;-65
2022/05/22 03:51:16;;;;;;;4.07;2.50;;;12.80;1.00;;;;;;5033630;28;20179;-72
2022/05/22 03:53:41;;;;;;;8.80;2.27;;;12.80;1.00;;;;;;5032229;28;20175;-68
2022/05/22 03:56:13;;;;;;;3.13;2.50;;;12.80;1.00;;;;;;5033544;28;20183;-72
2022/05/22 03:58:39;;;;;;;2.70;2.50;;;12.70;1.00;;;;;;5031779;28;20214;-65
2022/05/22 04:01:07;;;;;;;3.13;2.60;;;12.80;1.00;;;;;;5030564;28;20401;-73
2022/05/22 04:03:34;;;;;;;3.80;2.40;;;12.80;1.00;;;;;;5031326;28;20957;-71
2022/05/22 04:06:01;;;;;;;5.80;2.60;;;12.80;1.00;;;;;;5030343;28;20413;-71
2022/05/22 04:08:28;;;;;;;3.30;2.30;;;12.80;1.00;;;;;;5029892;28;20820;-72
2022/05/22 04:10:54;;;;;;;4.53;2.40;;;12.80;1.00;;;;;;5034107;28;20460;-72
2022/05/22 04:13:20;;;;;;;5.20;2.70;;;12.80;1.00;;;;;;5031167;28;20430;-72
2022/05/22 04:15:46;;;;;;;7.23;3.50;;;12.70;1.00;;;;;;5032839;28;20927;-65
2022/05/22 04:18:12;;;;;;;8.20;2.40;;;12.70;1.00;;;;;;5039615;28;20305;-70
2022/05/22 04:20:38;;;;;;;2.60;2.40;;;12.80;1.00;;;;;;5038075;28;20482;-73
2022/05/22 04:25:57;;;;;;;2.83;2.03;;;12.70;1.00;;;;;;5036965;28;20444;-72
2022/05/22 04:28:24;;;;;;;4.80;2.47;;;12.70;1.00;;;;;;5045060;28;20405;-72
2022/05/22 04:30:50;;;;;;;7.30;2.23;;;12.80;1.00;;;;;;5037506;28;20465;-73
2022/05/22 04:33:16;;;;;;;7.97;2.80;;;12.80;1.00;;;;;;5036030;28;20408;-73
2022/05/22 04:35:43;;;;;;;8.10;2.23;;;12.80;1.00;;;;;;5032679;28;20543;-71
2022/05/22 04:38:11;;;;;;;4.77;2.27;;;12.90;1.00;;;;;;5030043;28;20435;-73
2022/05/22 04:40:38;;;;;;;6.00;2.50;;;12.90;1.00;;;;;;5032693;28;20499;-65
2022/05/22 04:43:04;;;;;;;5.50;2.10;;;12.90;1.00;;;;;;5030452;28;20463;-65
2022/05/22 04:45:30;;;;;;;10.90;3.80;;;12.90;1.00;;;;;;5047093;28;20495;-66
2022/05/22 04:47:56;;;;;;;4.03;2.33;;;13.00;1.00;;;;;;5030736;28;20457;-72
2022/05/22 04:50:22;;;;;;;13.73;2.97;;;12.90;1.00;;;;;;5031007;28;20409;-73
2022/05/22 04:52:48;;;;;;;5.30;3.27;;;12.90;1.00;;;;;;5031411;28;20452;-67
2022/05/22 04:55:14;;;;;;;7.63;2.63;;;12.90;1.00;;;;;;5031171;28;20503;-73
2022/05/22 04:57:39;;;;;;;7.37;2.70;;;13.00;1.00;;;;;;5030116;28;20214;-73
2022/05/22 05:00:09;;;;;;;8.67;1.80;;;13.10;1.00;;;;;;5029711;28;20532;-65
2022/05/22 05:02:35;;;;;;;3.40;2.60;;;13.10;1.00;;;;;;5031374;28;20203;-66
2022/05/22 05:05:02;;;;;;;9.20;4.07;;;13.20;1.00;;;;;;5031155;28;20938;-65
2022/05/22 05:07:28;;;;;;;3.77;2.70;;;13.30;1.00;;;;;;5028594;28;20429;-72
2022/05/22 05:09:54;;;;;;;6.93;2.60;;;13.30;1.00;;;;;;5032299;28;20854;-65
2022/05/22 05:12:19;;;;;;;12.00;2.63;;;13.40;1.00;;;;;;5032998;28;20253;-72
2022/05/22 05:14:46;;;;;;;3.57;2.07;;;13.50;1.00;;;;;;5032050;28;20421;-64
2022/05/22 05:17:15;;;;;;;6.30;2.33;;;13.50;1.00;;;;;;5028015;28;20180;-72
2022/05/22 05:19:40;;;;;;;3.83;2.20;;;13.40;1.00;;;;;;5029877;28;20420;-65
2022/05/22 05:22:06;;;;;;;6.53;2.43;;;13.40;1.00;;;;;;5027589;28;21023;-65
2022/05/22 05:24:33;;;;;;;4.93;2.40;;;13.40;1.00;;;;;;5031158;28;20175;-73
2022/05/22 05:26:59;;;;;;;3.87;1.97;;;13.30;1.00;;;;;;5032298;28;20422;-65
2022/05/22 05:29:25;;;;;;;8.90;2.70;;;13.20;1.00;;;;;;5031605;28;20482;-65
2022/05/22 05:31:52;;;;;;;5.63;2.90;;;13.10;1.00;;;;;;5032203;28;20182;-64
2022/05/22 05:34:18;;;;;;;6.40;2.43;;;13.20;1.00;;;;;;5031104;28;20405;-66
2022/05/22 05:36:44;;;;;;;6.27;2.03;;;13.20;1.00;;;;;;5030903;28;20434;-66
2022/05/22 05:39:10;;;;;;;4.90;2.53;;;13.30;1.00;;;;;;5032631;28;20473;-74
2022/05/22 05:41:36;;;;;;;4.57;2.63;;;13.30;1.00;;;;;;5032683;28;20167;-74
2022/05/22 05:44:06;;;;;;;5.77;2.40;;;13.40;1.00;;;;;;5031284;28;20920;-74
2022/05/22 05:46:36;;;;;;;4.73;2.73;;;13.50;1.00;;;;;;5031117;28;20397;-74
2022/05/22 05:49:03;;;;;;;5.30;2.13;;;13.50;1.00;;;;;;5032607;28;20458;-73
2022/05/22 05:51:29;;;;;;;6.07;3.03;;;13.50;1.00;;;;;;5031928;28;20397;-73
2022/05/22 05:53:55;;;;;;;8.60;2.10;;;13.60;1.00;;;;;;5031263;28;20400;-66
2022/05/22 05:56:21;;;;;;;8.40;3.47;;;13.60;1.00;;;;;;5033060;28;20247;-72
2022/05/22 05:58:48;;;;;;;4.50;2.67;;;13.60;1.00;;;;;;5034705;28;20556;-72
2022/05/22 06:01:16;;;;;;;3.23;2.13;;;13.60;1.00;;;;;;5036851;28;20402;-72
2022/05/22 06:03:42;;;;;;;3.83;2.60;;;13.60;1.00;;;;;;5036494;28;20454;-72
2022/05/22 06:06:09;;;;;;;3.23;2.30;;;13.60;1.00;;;;;;5034735;28;20426;-65
2022/05/22 06:08:35;;;;;;;3.23;2.23;;;13.60;1.00;;;;;;5035526;28;20441;-65
2022/05/22 06:11:02;;;;;;;5.70;2.33;;;13.60;1.00;;;;;;5035403;28;20426;-64
2022/05/22 06:13:27;;;;;;;5.37;2.17;;;13.60;1.00;;;;;;5034853;28;20396;-72
2022/05/22 06:15:53;;;;;;;5.87;2.30;;;13.70;1.00;;;;;;5036538;28;20385;-65
2022/05/22 06:18:20;;;;;;;6.70;2.77;;;13.70;1.00;;;;;;5035174;28;20205;-65
2022/05/22 06:20:46;;;;;;;7.70;2.27;;;13.70;99.90;;;;;;5035557;28;20187;-73
2022/05/22 06:23:12;;;;;;;5.63;2.40;;;13.60;99.90;;;;;;5051519;28;20424;-74
2022/05/22 06:25:39;;;;;;;2.80;2.30;;;13.70;99.90;;;;;;5036292;28;20408;-66
2022/05/22 06:28:06;;;;;;;3.00;2.80;;;13.80;99.90;;;;;;5035210;28;20229;-72
2022/05/22 06:30:31;;;;;;;4.50;2.20;;;13.80;99.90;;;;;;5028490;28;20534;-71
2022/05/22 06:33:00;;;;;;;6.70;2.53;;;13.90;99.90;;;;;;5035577;28;20936;-64
2022/05/22 06:35:25;;;;;;;4.73;2.30;;;14.00;99.90;;;;;;5043417;28;20426;-65
2022/05/22 06:37:51;;;;;;;6.93;2.77;;;14.10;99.90;;;;;;5033733;28;20469;-64
2022/05/22 06:40:16;;;;;;;4.60;2.37;;;14.10;99.90;;;;;;5034753;28;20213;-68
2022/05/22 06:42:44;;;;;;;3.00;2.30;;;14.10;99.90;;;;;;5035032;28;20203;-73
2022/05/22 06:45:13;;;;;;;3.30;1.87;;;14.10;99.90;;;;;;5035999;28;20167;-73
2022/05/22 06:47:40;;;;;;;4.10;2.47;;;14.00;99.90;;;;;;5034773;28;20388;-66
2022/05/22 06:50:09;;;;;;;7.70;2.03;;;14.00;99.90;;;;;;5036079;28;20762;-73
2022/05/22 06:52:36;;;;;;;7.03;2.70;;;14.10;99.90;;;;;;5035246;28;20401;-71
2022/05/22 06:55:03;;;;;;;4.33;1.90;;;14.20;99.90;;;;;;5034222;28;20439;-65
2022/05/22 06:57:29;;;;;;;3.57;2.10;;;14.40;99.90;;;;;;5034972;28;20395;-72
2022/05/22 06:59:57;;;;;;;6.90;2.20;;;14.40;99.90;;;;;;5035344;28;20420;-72
2022/05/22 07:02:24;;;;;;;8.37;2.20;;;14.40;99.90;;;;;;5035470;28;20556;-72
2022/05/22 07:05:10;;;;;;;6.27;1.87;;;14.50;99.90;;;;;;5035409;28;20393;-65
2022/05/22 07:07:35;;;;;;;3.20;1.60;;;14.50;99.90;;;;;;5032900;28;20857;-72
2022/05/22 07:10:01;;;;;;;4.53;2.63;;;14.50;99.90;;;;;;5034791;28;20472;-66
2022/05/22 07:12:27;;;;;;;4.37;2.70;;;14.50;99.90;;;;;;5035188;28;20184;-72
2022/05/22 07:14:55;;;;;;;3.40;2.10;;;14.50;99.90;;;;;;5035413;28;20416;-71
2022/05/22 07:17:24;;;;;;;4.07;2.50;;;14.50;99.90;;;;;;5034667;28;20167;-65
2022/05/22 07:19:55;;;;;;;6.57;2.43;;;14.60;99.90;;;;;;5035394;28;20472;-72
2022/05/22 07:22:21;;;;;;;11.10;1.80;;;14.70;99.90;;;;;;5034110;28;20436;-72
2022/05/22 07:24:47;;;;;;;2.30;1.83;;;14.70;99.90;;;;;;5035198;28;20400;-65
2022/05/22 07:27:13;;;;;;;4.93;2.13;;;14.60;99.90;;;;;;5034356;28;20381;-65
2022/05/22 07:29:38;;;;;;;5.10;2.37;;;14.70;99.90;;;;;;5035093;28;20223;-65
2022/05/22 07:32:04;;;;;;;7.53;3.10;;;14.70;99.90;;;;;;5034626;28;20179;-72
2022/05/22 07:34:30;;;;;;;3.03;2.03;;;14.80;99.90;;;;;;5034964;28;20159;-65
2022/05/22 07:36:58;;;;;;;8.13;2.27;;;14.70;99.90;;;;;;5032870;28;20719;-73
2022/05/22 07:39:25;;;;;;;3.93;1.43;;;14.70;99.90;;;;;;5034910;28;20199;-65
2022/05/22 07:41:51;;;;;;;2.47;1.90;;;14.80;99.90;;;;;;5050252;28;20510;-65
2022/05/22 07:44:17;;;;;;;3.77;1.80;;;14.90;99.90;;;;;;5034738;28;20891;-72
2022/05/22 07:46:43;;;;;;;4.80;1.77;;;15.00;99.90;;;;;;5033713;28;20399;-71
2022/05/22 07:50:16;;;;;;;4.23;1.80;;;15.20;99.90;;;;;;5034442;28;20234;-71
2022/05/22 07:51:55;;;;;;;4.80;2.37;;;15.20;99.90;;;;;;5034682;28;20377;-64
2022/05/22 07:54:20;;;;;;;4.10;1.63;;;15.00;99.90;;;;;;5033612;28;20487;-72
2022/05/22 07:56:46;;;;;;;2.20;1.77;;;15.00;99.90;;;;;;5033972;28;20179;-65
2022/05/22 07:59:11;;;;;;;5.77;2.03;;;15.00;99.90;;;;;;5034633;28;20188;-68
2022/05/22 08:01:37;;;;;;;4.00;2.10;;;15.10;99.90;;;;;;5034518;28;20176;-72
2022/05/22 08:04:04;;;;;;;3.70;1.80;;;15.30;99.90;;;;;;5034611;28;20164;-65
2022/05/22 08:06:29;;;;;;;4.10;1.93;;;15.60;99.90;;;;;;5032051;28;20405;-71
2022/05/22 08:08:55;;;;;;;2.20;1.80;;;15.80;99.90;;;;;;5034410;28;20448;-71
2022/05/22 08:11:21;;;;;;;8.60;2.00;;;15.90;99.90;;;;;;5033304;28;20229;-65
2022/05/22 08:13:46;;;;;;;1.90;1.80;;;16.10;99.90;;;;;;5034358;28;20179;-65
2022/05/22 08:16:12;;;;;;;3.83;1.60;;;16.10;99.90;;;;;;5034335;28;20176;-66
2022/05/22 08:18:37;;;;;;;5.63;2.03;;;16.20;99.90;;;;;;5033529;28;20199;-65
2022/05/22 08:21:03;;;;;;;3.83;2.03;;;16.20;99.90;;;;;;5034005;28;20183;-65
2022/05/22 08:23:29;;;;;;;4.50;2.30;;;16.10;99.90;;;;;;5033539;28;20199;-72
2022/05/22 08:25:55;;;;;;;2.40;2.20;;;16.10;99.90;;;;;;5034112;28;20526;-65
2022/05/22 08:28:22;;;;;;;3.83;1.87;;;16.00;99.90;;;;;;5031997;28;20231;-65
2022/05/22 08:30:48;;;;;;;4.83;1.70;;;16.20;99.90;;;;;;5034227;28;20444;-64
2022/05/22 08:33:16;;;;;;;6.23;2.20;;;16.30;99.90;;;;;;5034025;28;20616;-72
2022/05/22 08:35:43;;;;;;;4.00;1.93;;;16.40;99.90;;;;;;5033923;28;20172;-65
2022/05/22 08:38:10;;;;;;;7.77;2.30;;;16.50;99.90;;;;;;5033038;28;20834;-73
2022/05/22 08:40:44;;;;;;;3.10;1.80;;;16.30;99.90;;;;;;5033694;28;20384;-72
2022/05/22 08:43:15;;;;;;;1.70;1.33;;;16.50;99.90;;;;;;5032406;28;20428;-64
2022/05/22 08:45:50;;;;;;;5.30;1.57;;;16.60;99.90;;;;;;5033631;28;20413;-73
2022/05/22 08:48:31;;;;;;;1.90;1.70;;;17.00;99.90;;;;;;5032810;28;20418;-71
2022/05/22 08:50:58;;;;;;;2.17;1.30;;;17.20;99.90;;;;;;5033705;28;20388;-72
2022/05/22 08:53:58;;;;;;;4.30;1.67;;;17.50;99.90;;;;;;5033754;28;20429;-65
2022/05/22 08:59:29;;;;;;;3.40;1.33;;;17.60;99.90;;;;;;5032055;28;20519;-65
2022/05/22 09:02:12;;;;;;;2.47;1.77;;;17.60;99.90;;;;;;5033382;28;20458;-72
2022/05/22 09:04:47;;;;;;;2.23;1.90;;;17.70;99.90;;;;;;5033472;28;20480;-65
2022/05/22 09:07:37;;;;;;;3.43;1.40;;;17.40;99.90;;;;;;5032425;28;20406;-73
2022/05/22 09:10:07;;;;;;;1.77;1.10;;;17.50;99.90;;;;;;5033462;28;20415;-65
2022/05/22 09:12:52;;;;;;;4.67;1.63;;;17.60;99.90;;;;;;5033358;28;20400;-73
2022/05/22 09:15:42;;;;;;;7.17;2.03;;;17.50;99.90;;;;;;5032246;28;20457;-65
2022/05/22 09:18:33;;;;;;;6.20;1.30;;;17.70;99.90;;;;;;5031800;28;20446;-66
2022/05/22 09:21:19;;;;;;;2.50;1.37;;;18.00;99.90;;;;;;5033061;28;20460;-73
2022/05/22 09:24:02;;;;;;;1.93;1.50;;;18.10;99.90;;;;;;5033146;28;20456;-72
2022/05/22 09:26:44;;;;;;;1.63;1.23;;;18.10;99.90;;;;;;5032455;28;20442;-70
2022/05/22 09:29:42;;;;;;;2.20;1.80;;;17.90;99.90;;;;;;5033054;28;20430;-73
2022/05/22 09:32:38;;;;;;;7.60;1.53;;;17.90;99.90;;;;;;5030431;28;20434;-72
2022/05/22 09:35:16;;;;;;;5.67;2.20;;;18.20;99.90;;;;;;5033031;28;20410;-73
2022/05/22 09:38:07;;;;;;;1.83;1.27;;;18.80;99.90;;;;;;5031402;28;20782;-72
2022/05/22 09:40:50;;;;;;;3.53;1.70;;;19.10;99.90;;;;;;5032978;28;20408;-66
2022/05/22 09:43:18;;;;;;;1.90;1.60;;;19.50;99.90;;;;;;5032946;28;20473;-64
2022/05/22 09:46:00;;;;;;;2.10;1.27;;;19.90;99.90;;;;;;5032965;28;20403;-73
2022/05/22 09:48:37;;;;;;;4.57;1.60;;;20.20;99.90;;;;;;5027542;28;20453;-65
2022/05/22 09:51:26;;;;;;;3.53;1.27;;;19.70;99.90;;;;;;5029631;28;20425;-65
2022/05/22 09:54:13;;;;;;;1.90;1.17;;;19.10;99.90;;;;;;5024936;28;20442;-71
2022/05/22 09:57:02;;;;;;;1.33;1.23;;;18.70;99.90;;;;;;5031988;28;20415;-65
2022/05/22 09:59:28;;;;;;;5.20;1.50;;;19.00;99.90;;;;;;5031583;28;20484;-72
2022/05/22 10:01:58;;;;;;;3.10;1.27;;;19.40;99.90;;;;;;5029930;28;20871;-65
2022/05/22 10:04:44;;;;;;;1.93;1.40;;;19.00;97.70;;;;;;5030563;28;20168;-64
2022/05/22 10:07:16;;;;;;;1.33;1.10;;;18.80;99.00;;;;;;5031914;28;20402;-72
2022/05/22 10:10:10;;;;;;;3.10;2.40;;;19.00;99.90;;;;;;5029815;28;20448;-72
2022/05/22 10:13:02;;;;;;;3.00;2.80;;;19.40;99.90;;;;;;5032371;28;20437;-72
2022/05/22 10:15:47;;;;;;;4.23;1.63;;;19.70;99.90;;;;;;5031544;28;20445;-72
2022/05/22 10:18:26;;;;;;;3.73;0.97;;;19.70;99.90;;;;;;5031770;28;20432;-66
2022/05/22 10:21:04;;;;;;;2.87;1.10;;;19.40;95.60;;;;;;5029938;28;20433;-68
2022/05/22 10:23:39;;;;;;;5.40;1.50;;;18.90;95.30;;;;;;5029913;28;20457;-65
2022/05/22 10:26:25;;;;;;;2.10;1.33;;;18.80;95.30;;;;;;5031210;28;20441;-72
2022/05/22 10:29:02;;;;;;;1.83;0.93;;;18.90;95.30;;;;;;5029902;28;20474;-72
2022/05/22 10:31:48;;;;;;;5.03;1.37;;;19.10;95.40;;;;;;5030928;28;20513;-64
2022/05/22 10:34:26;;;;;;;3.37;2.03;;;19.50;95.50;;;;;;5024327;28;20930;-66
2022/05/22 10:37:16;;;;;;;2.17;1.97;;;19.80;99.20;;;;;;5030580;28;20791;-70
2022/05/22 10:39:42;;;;;;;2.53;1.20;;;20.10;99.10;;;;;;5022176;28;20446;-65
2022/05/22 10:45:10;;;;;;;2.90;1.20;;;20.50;95.90;;;;;;5031540;28;20441;-66
2022/05/22 10:47:36;;;;;;;1.70;1.03;;;20.70;96.00;;;;;;5039726;28;20533;-71
2022/05/22 10:50:18;;;;;;;3.93;1.50;;;21.40;96.30;;;;;;5034186;28;20978;-73
2022/05/22 10:52:44;;;;;;;3.93;2.57;;;21.30;96.20;;;;;;5033534;28;20421;-72
2022/05/22 10:55:44;;;;;;;2.47;1.57;;;20.40;95.90;;;;;;5031024;28;20426;-72
2022/05/22 10:58:53;;;;;;;4.20;1.73;;;19.60;95.50;;;;;;5032744;28;20476;-70
2022/05/22 11:01:22;;;;;;;4.70;2.93;;;18.90;95.30;;;;;;5029388;28;20446;-72
2022/05/22 11:03:59;;;;;;;2.40;2.20;;;18.60;98.30;;;;;;5030575;28;20462;-66
2022/05/22 11:06:25;;;;;;;2.80;2.43;;;18.30;99.30;;;;;;5032224;28;20457;-71
2022/05/22 11:08:53;;;;;;;2.50;2.20;;;18.10;99.90;;;;;;5033325;28;20453;-67
2022/05/22 11:11:23;;;;;;;6.73;2.13;;;18.10;99.90;;;;;;5040444;28;20635;-72
2022/05/22 11:13:50;;;;;;;2.27;1.67;;;19.00;99.90;;;;;;5037872;28;20418;-71
2022/05/22 11:16:34;;;;;;;2.33;1.70;;;20.20;99.90;;;;;;5038128;28;20425;-66
2022/05/22 11:19:24;;;;;;;5.20;1.90;;;21.80;99.90;;;;;;5028995;28;20461;-66
2022/05/22 11:22:05;;;;;;;5.40;1.40;;;23.00;99.90;;;;;;5030925;28;20434;-66
2022/05/22 11:24:40;;;;;;;3.10;1.50;;;23.80;99.90;;;;;;5021943;28;20505;-67
2022/05/22 11:27:15;;;;;;;2.00;1.40;;;24.50;99.90;;;;;;5043312;28;20990;-73
2022/05/22 11:30:10;;;;;;;3.73;1.20;;;25.10;99.90;;;;;;5032136;28;20445;-73
2022/05/22 11:33:01;;;;;;;2.20;1.30;;;25.50;99.90;;;;;;5027392;28;20521;-72
2022/05/22 11:35:39;;;;;;;2.67;1.13;;;25.60;97.70;;;;;;5032998;28;20437;-74
2022/05/22 11:38:28;;;;;;;2.03;1.27;;;25.80;91.30;;;;;;5031533;28;20476;-73
2022/05/22 11:41:14;;;;;;;2.43;0.90;;;26.30;84.80;;;;;;5034247;28;20556;-73
2022/05/22 11:43:59;;;;;;;1.17;1.07;;;27.10;87.00;;;;;;5031899;28;20545;-74
2022/05/22 11:46:49;;;;;;;3.80;1.30;;;27.70;76.20;;;;;;5034377;28;20839;-65
2022/05/22 11:49:46;;;;;;;2.90;1.20;;;27.50;64.30;;;;;;5033374;28;20504;-73
2022/05/22 11:55:40;;;;;;;1.40;0.97;;;27.40;45.60;;;;;;5023148;28;20463;-72
2022/05/22 11:58:09;;;;;;;4.63;1.20;;;27.30;31.20;;;;;;5030409;28;20458;-72
2022/05/22 12:01:03;;;;;;;1.90;0.70;;;26.10;24.50;;;;;;5032793;28;20442;-66
2022/05/22 12:03:53;;;;;;;1.67;0.90;;;25.10;21.00;;;;;;5030890;28;21049;-66
2022/05/22 12:06:37;;;;;;;1.43;0.87;;;25.00;16.60;;;;;;5031866;28;20945;-67
2022/05/22 12:09:28;;;;;;;1.43;0.90;;;26.00;23.10;;;;;;5030010;28;20442;-66
2022/05/22 12:12:21;;;;;;;2.00;1.20;;;26.80;26.60;;;;;;5022957;28;20422;-74
2022/05/22 12:14:59;;;;;;;3.83;1.40;;;27.70;29.90;;;;;;5034380;28;20463;-66
2022/05/22 12:17:27;;;;;;;7.83;1.10;;;27.90;23.60;;;;;;5030700;28;20426;-69
2022/05/22 12:20:22;;;;;;;3.03;0.70;;;28.20;15.60;;;;;;5031768;28;20979;-74
2022/05/22 12:23:08;;;;;;;2.97;1.50;;;27.00;5.70;;;;;;5032614;28;20461;-74
2022/05/22 12:25:39;;;;;;;8.47;1.10;;;25.00;1.00;;;;;;5028348;28;20470;-67
2022/05/22 12:28:23;;;;;;;2.83;1.03;;;23.70;1.00;;;;;;5032392;28;20759;-69
2022/05/22 12:30:49;;;;;;;2.00;1.10;;;23.20;1.00;;;;;;5030386;28;20937;-74
2022/05/22 12:33:15;;;;;;;2.70;1.10;;;23.50;1.00;;;;;;5032701;28;20424;-70
2022/05/22 12:35:43;;;;;;;3.67;1.10;;;23.80;1.00;;;;;;5033655;28;20183;-74
2022/05/22 12:38:12;;;;;;;1.80;1.07;;;24.20;1.50;;;;;;5029036;28;22300;-72
2022/05/22 12:41:08;;;;;;;2.70;0.87;;;25.20;10.20;;;;;;5029419;28;20426;-75
2022/05/22 12:43:34;;;;;;;4.03;1.00;;;26.20;13.00;;;;;;5031958;28;20474;-69
2022/05/22 12:46:05;;;;;;;1.83;1.37;;;26.50;7.00;;;;;;5033560;28;20505;-66
2022/05/22 12:48:33;;;;;;;1.40;0.97;;;25.80;1.00;;;;;;5031387;28;20450;-65
2022/05/22 12:51:18;;;;;;;3.03;1.00;;;24.90;1.00;;;;;;5031404;28;20426;-66
2022/05/22 12:53:47;;;;;;;2.20;0.83;;;23.60;1.00;;;;;;5022725;28;20409;-66
2022/05/22 12:56:24;;;;;;;1.50;1.00;;;22.70;1.00;;;;;;5029516;28;20480;-73
2022/05/22 12:58:56;;;;;;;4.73;1.30;;;22.10;1.00;;;;;;5031676;28;20501;-65
2022/05/22 13:01:39;;;;;;;1.70;0.80;;;21.70;1.00;;;;;;5033304;28;20440;-66
2022/05/22 13:04:17;;;;;;;1.77;0.70;;;21.10;1.00;;;;;;5031922;28;20461;-64
2022/05/22 13:07:11;;;;;;;2.70;1.20;;;20.80;1.00;;;;;;5025204;28;20423;-65
2022/05/22 13:09:49;;;;;;;1.77;1.03;;;20.70;1.00;;;;;;5031218;28;20457;-65
2022/05/22 13:12:32;;;;;;;1.03;0.83;;;20.60;1.00;;;;;;5031306;28;20445;-74
2022/05/22 13:15:06;;;;;;;2.03;1.13;;;20.50;1.00;;;;;;5031351;28;20429;-72
2022/05/22 13:17:36;;;;;;;1.87;1.20;;;20.40;1.00;;;;;;5032596;28;20448;-72
2022/05/22 13:20:09;;;;;;;2.37;1.20;;;20.70;1.00;;;;;;5031644;28;20856;-72
2022/05/22 13:22:40;;;;;;;2.37;1.27;;;21.50;1.00;;;;;;5032423;28;20472;-74
2022/05/22 13:25:28;;;;;;;2.00;0.77;;;22.20;2.70;;;;;;5030692;28;20438;-65
2022/05/22 13:27:54;;;;;;;2.87;1.10;;;22.60;3.60;;;;;;5030138;28;20454;-64